createdAt,value
2022-12-27T00:02:17.493Z,4.57
2022-12-27T00:04:44.283Z,2.00
2022-12-27T00:07:13.872Z,3.23
2022-12-27T00:09:40.579Z,1.53
2022-12-27T00:12:07.557Z,1.87
2022-12-27T00:14:34.290Z,2.80
2022-12-27T00:17:00.969Z,1.73
2022-12-27T00:19:27.674Z,1.30
2022-12-27T00:21:54.390Z,2.53
2022-12-27T00:24:21.093Z,0.60
2022-12-27T00:26:47.824Z,1.27
2022-12-27T00:29:14.563Z,1.40
2022-12-27T00:31:41.268Z,1.73
2022-12-27T00:34:08.069Z,2.90
2022-12-27T00:36:35.355Z,1.17
2022-12-27T00:39:02.474Z,1.23
2022-12-27T00:41:29.300Z,2.07
2022-12-27T00:43:56.365Z,2.10
2022-12-27T00:46:23.170Z,3.40
2022-12-27T00:48:49.845Z,0.80
2022-12-27T00:51:19.612Z,3.50
2022-12-27T00:53:47.716Z,0.97
2022-12-27T00:56:18.278Z,1.33
2022-12-27T00:58:45.355Z,1.30
2022-12-27T01:01:18.719Z,1.60
2022-12-27T01:03:46.422Z,0.97
2022-12-27T01:06:17.068Z,1.47
2022-12-27T01:08:44.005Z,3.00
2022-12-27T01:11:11.765Z,3.33
2022-12-27T01:13:39.356Z,1.60
2022-12-27T01:16:15.568Z,4.80
2022-12-27T01:18:43.343Z,2.20
2022-12-27T01:21:13.085Z,1.80
2022-12-27T01:23:40.383Z,5.83
2022-12-27T01:26:16.241Z,1.67
2022-12-27T01:28:43.681Z,0.90
2022-12-27T01:31:13.713Z,1.50
2022-12-27T01:33:40.732Z,0.80
2022-12-27T01:36:12.848Z,1.17
2022-12-27T01:38:42.555Z,1.13
2022-12-27T01:41:38.546Z,2.40
2022-12-27T01:44:39.528Z,1.90
2022-12-27T01:47:19.507Z,1.90
2022-12-27T01:50:09.694Z,1.73
2022-12-27T01:53:10.731Z,2.50
2022-12-27T01:55:55.508Z,2.43
2022-12-27T01:58:44.184Z,3.23
2022-12-27T02:01:20.912Z,2.67
2022-12-27T02:04:09.184Z,1.60
2022-12-27T02:06:36.909Z,2.03
2022-12-27T02:09:13.042Z,1.00
2022-12-27T02:11:53.263Z,2.37
2022-12-27T02:14:44.295Z,2.73
2022-12-27T02:17:21.657Z,1.90
2022-12-27T02:19:59.117Z,2.67
2022-12-27T02:22:28.558Z,2.10
2022-12-27T02:25:30.717Z,2.10
2022-12-27T02:28:31.047Z,1.37
2022-12-27T02:31:08.851Z,2.03
2022-12-27T02:33:42.119Z,0.97
2022-12-27T02:36:12.248Z,0.70
2022-12-27T02:38:44.620Z,2.03
2022-12-27T02:41:31.121Z,1.33
2022-12-27T02:44:17.200Z,0.53
2022-12-27T02:47:03.785Z,1.47
2022-12-27T02:50:01.022Z,0.57
2022-12-27T02:53:08.135Z,2.20
2022-12-27T02:55:40.768Z,0.67
2022-12-27T02:58:17.763Z,1.97
2022-12-27T03:01:15.627Z,0.50
2022-12-27T03:03:51.201Z,2.63
2022-12-27T03:06:40.695Z,5.37
2022-12-27T03:09:13.486Z,1.53
2022-12-27T03:12:06.705Z,12.83
2022-12-27T03:14:59.018Z,19.97
2022-12-27T03:17:42.301Z,7.93
2022-12-27T03:20:34.482Z,1.40
2022-12-27T03:23:21.290Z,4.17
2022-12-27T03:25:50.077Z,1.30
2022-12-27T03:28:42.203Z,2.73
2022-12-27T03:31:40.385Z,2.40
2022-12-27T03:34:28.264Z,3.57
2022-12-27T03:37:15.362Z,3.20
2022-12-27T03:39:54.738Z,1.47
2022-12-27T03:42:45.056Z,2.13
2022-12-27T03:45:11.840Z,1.37
2022-12-27T03:47:56.798Z,1.57
2022-12-27T03:50:29.979Z,4.40
2022-12-27T03:53:08.036Z,2.43
2022-12-27T03:55:34.979Z,2.20
2022-12-27T03:58:01.883Z,2.80
2022-12-27T04:00:28.796Z,1.00
2022-12-27T04:02:55.741Z,2.67
2022-12-27T04:05:22.431Z,1.03
2022-12-27T04:08:07.525Z,2.17
2022-12-27T04:10:52.915Z,2.50
2022-12-27T04:13:38.407Z,0.80
2022-12-27T04:16:24.009Z,0.70
2022-12-27T04:19:09.296Z,1.53
2022-12-27T04:21:54.617Z,1.00
2022-12-27T04:24:40.029Z,4.23
2022-12-27T04:27:25.471Z,1.10
2022-12-27T04:30:10.860Z,2.27
2022-12-27T04:32:56.245Z,1.70
2022-12-27T04:35:22.947Z,2.60
2022-12-27T04:37:49.657Z,1.00
2022-12-27T04:40:35.096Z,0.60
2022-12-27T04:43:20.587Z,0.60
2022-12-27T04:46:25.844Z,1.00
2022-12-27T04:49:11.029Z,0.60
2022-12-27T04:51:56.454Z,1.10
2022-12-27T04:54:42.361Z,2.10
2022-12-27T04:57:08.991Z,0.60
2022-12-27T04:59:54.307Z,1.57
2022-12-27T05:02:21.507Z,1.00
2022-12-27T05:04:48.946Z,1.33
2022-12-27T05:07:35.063Z,1.30
2022-12-27T05:10:22.906Z,1.73
2022-12-27T05:13:08.538Z,1.57
2022-12-27T05:15:35.209Z,2.63
2022-12-27T05:18:01.957Z,0.70
2022-12-27T05:20:28.684Z,2.20
2022-12-27T05:23:13.927Z,1.37
2022-12-27T05:25:45.230Z,1.10
2022-12-27T05:28:12.637Z,1.90
2022-12-27T05:30:41.929Z,1.50
2022-12-27T05:33:08.567Z,0.80
2022-12-27T05:35:35.612Z,1.23
2022-12-27T05:38:03.061Z,0.73
2022-12-27T05:40:29.761Z,2.40
2022-12-27T05:43:02.060Z,2.43
2022-12-27T05:45:29.456Z,2.23
2022-12-27T05:47:56.679Z,1.43
2022-12-27T05:50:23.330Z,1.77
2022-12-27T05:52:49.990Z,1.67
2022-12-27T05:55:16.783Z,1.57
2022-12-27T05:57:43.420Z,3.40
2022-12-27T06:00:11.769Z,1.20
2022-12-27T06:02:39.470Z,1.40
2022-12-27T06:05:06.512Z,2.10
2022-12-27T06:07:34.665Z,1.17
2022-12-27T06:10:01.314Z,1.53
2022-12-27T06:12:28.010Z,1.00
2022-12-27T06:14:54.636Z,2.93
2022-12-27T06:17:21.279Z,3.53
2022-12-27T06:19:52.466Z,1.37
2022-12-27T06:22:22.104Z,1.87
2022-12-27T06:24:48.937Z,2.23
2022-12-27T06:27:15.661Z,2.93
2022-12-27T06:29:42.461Z,2.47
2022-12-27T06:32:09.139Z,1.20
2022-12-27T06:34:35.809Z,1.53
2022-12-27T06:37:02.489Z,1.57
2022-12-27T06:39:30.188Z,2.00
2022-12-27T06:41:56.841Z,2.67
2022-12-27T06:44:23.489Z,3.13
2022-12-27T06:46:50.115Z,2.47
2022-12-27T06:49:16.794Z,1.40
2022-12-27T06:51:43.463Z,1.33
2022-12-27T06:54:10.290Z,2.47
2022-12-27T06:56:36.945Z,3.57
2022-12-27T06:59:03.728Z,1.33
2022-12-27T07:01:30.595Z,2.97
2022-12-27T07:03:59.756Z,1.67
2022-12-27T07:06:28.794Z,2.70
2022-12-27T07:08:56.313Z,4.23
2022-12-27T07:11:24.129Z,4.73
2022-12-27T07:13:53.065Z,3.77
2022-12-27T07:16:23.390Z,1.63
2022-12-27T07:18:50.421Z,1.83
2022-12-27T07:21:20.152Z,2.50
2022-12-27T07:23:47.067Z,2.00
2022-12-27T07:26:18.433Z,1.43
2022-12-27T07:28:45.401Z,2.10
2022-12-27T07:31:13.623Z,1.70
2022-12-27T07:33:40.319Z,3.67
2022-12-27T07:36:19.014Z,1.70
2022-12-27T07:38:45.875Z,2.83
2022-12-27T07:41:13.576Z,3.70
2022-12-27T07:43:41.026Z,2.90
2022-12-27T07:46:10.756Z,1.80
2022-12-27T07:48:38.174Z,2.67
2022-12-27T07:51:05.498Z,2.40
2022-12-27T07:53:32.931Z,3.17
2022-12-27T07:56:04.762Z,1.80
2022-12-27T07:58:35.033Z,2.13
2022-12-27T08:01:03.673Z,2.20
2022-12-27T08:03:31.538Z,1.80
2022-12-27T08:05:58.395Z,2.43
2022-12-27T08:08:29.555Z,3.47
2022-12-27T08:10:59.365Z,2.03
2022-12-27T08:13:30.409Z,3.67
2022-12-27T08:15:57.158Z,2.23
2022-12-27T08:18:23.915Z,1.90
2022-12-27T08:20:51.251Z,2.87
2022-12-27T08:23:17.938Z,6.57
2022-12-27T08:25:49.046Z,2.90
2022-12-27T08:28:17.629Z,2.93
2022-12-27T08:30:46.198Z,4.40
2022-12-27T08:33:15.083Z,3.17
2022-12-27T08:35:53.211Z,2.97
2022-12-27T08:38:20.873Z,4.20
2022-12-27T08:40:47.555Z,2.53
2022-12-27T08:43:14.581Z,3.47
2022-12-27T08:45:41.374Z,5.43
2022-12-27T08:48:08.341Z,2.37
2022-12-27T08:50:35.177Z,2.80
2022-12-27T08:53:03.113Z,5.10
2022-12-27T08:55:30.590Z,3.70
2022-12-27T08:58:12.242Z,2.70
2022-12-27T09:00:42.927Z,2.67
2022-12-27T09:03:10.560Z,3.50
2022-12-27T09:05:41.600Z,2.83
2022-12-27T09:08:08.705Z,3.20
2022-12-27T09:10:35.446Z,2.03
2022-12-27T09:13:02.112Z,3.03
2022-12-27T09:15:28.991Z,2.57
2022-12-27T09:17:55.939Z,5.00
2022-12-27T09:20:22.691Z,3.00
2022-12-27T09:22:49.753Z,4.43
2022-12-27T09:25:16.467Z,3.10
2022-12-27T09:27:43.418Z,3.63
2022-12-27T09:30:10.329Z,3.83
2022-12-27T09:32:37.050Z,4.00
2022-12-27T09:35:04.274Z,2.40
2022-12-27T09:37:32.066Z,6.47
2022-12-27T09:39:58.889Z,4.20
2022-12-27T09:45:24.043Z,3.47
2022-12-27T09:48:02.732Z,2.13
2022-12-27T09:50:50.111Z,3.37
2022-12-27T09:53:32.761Z,3.50
2022-12-27T09:55:59.524Z,4.97
2022-12-27T09:58:50.628Z,4.37
2022-12-27T10:01:25.566Z,4.10
2022-12-27T10:03:53.316Z,3.30
2022-12-27T10:06:41.578Z,3.80
2022-12-27T10:09:26.669Z,2.23
2022-12-27T10:12:20.687Z,2.70
2022-12-27T10:14:53.223Z,2.97
2022-12-27T10:17:53.321Z,3.33
2022-12-27T10:20:47.869Z,3.37
2022-12-27T10:23:22.980Z,3.03
2022-12-27T10:26:00.676Z,3.07
2022-12-27T10:28:39.879Z,5.83
2022-12-27T10:31:10.609Z,2.40
2022-12-27T10:33:37.988Z,7.37
2022-12-27T10:36:11.453Z,3.83
2022-12-27T10:38:38.420Z,4.30
2022-12-27T10:41:31.926Z,4.97
2022-12-27T10:43:58.626Z,3.80
2022-12-27T10:46:32.516Z,4.13
2022-12-27T10:49:21.064Z,1.50
2022-12-27T10:51:49.454Z,3.63
2022-12-27T10:54:28.196Z,2.50
2022-12-27T10:56:56.511Z,3.23
2022-12-27T10:59:24.575Z,3.17
2022-12-27T11:02:00.217Z,2.37
2022-12-27T11:04:28.403Z,2.67
2022-12-27T11:07:04.372Z,2.67
2022-12-27T11:09:32.432Z,1.47
2022-12-27T11:12:13.936Z,2.13
2022-12-27T11:14:55.471Z,2.20
2022-12-27T11:17:51.781Z,3.43
2022-12-27T11:20:44.787Z,1.40
2022-12-27T11:23:17.773Z,3.07
2022-12-27T11:25:56.756Z,1.10
2022-12-27T11:28:38.202Z,3.43
2022-12-27T11:31:17.930Z,1.60
2022-12-27T11:33:51.509Z,1.60
2022-12-27T11:36:31.511Z,3.00
2022-12-27T11:39:00.581Z,2.60
2022-12-27T11:41:52.824Z,1.03
2022-12-27T11:44:28.068Z,1.13
2022-12-27T11:47:12.113Z,1.67
2022-12-27T11:50:17.531Z,2.13
2022-12-27T11:52:50.356Z,3.63
2022-12-27T11:55:26.111Z,3.83
2022-12-27T11:58:24.938Z,3.80
2022-12-27T12:01:10.094Z,1.97
2022-12-27T12:04:01.729Z,1.63
2022-12-27T12:06:48.638Z,1.93
2022-12-27T12:09:37.045Z,4.53
2022-12-27T12:12:40.672Z,2.80
2022-12-27T12:15:44.512Z,2.10
2022-12-27T12:18:16.984Z,3.33
2022-12-27T12:20:55.906Z,2.20
2022-12-27T12:23:41.121Z,4.03
2022-12-27T12:26:17.800Z,3.97
2022-12-27T12:28:59.920Z,3.67
2022-12-27T12:31:51.070Z,3.10
2022-12-27T12:34:20.521Z,1.90
2022-12-27T12:37:11.513Z,2.67
2022-12-27T12:40:05.941Z,4.07
2022-12-27T12:42:40.738Z,2.57
2022-12-27T12:45:27.561Z,4.57
2022-12-27T12:48:20.522Z,4.00
2022-12-27T12:51:06.001Z,1.97
2022-12-27T12:53:38.361Z,1.30
2022-12-27T12:56:50.065Z,2.83
2022-12-27T12:59:36.792Z,3.93
2022-12-27T13:02:28.548Z,1.13
2022-12-27T13:05:11.544Z,1.47
2022-12-27T13:07:50.121Z,3.30
2022-12-27T13:10:44.949Z,4.43
2022-12-27T13:13:35.696Z,2.43
2022-12-27T13:16:36.218Z,2.93
2022-12-27T13:19:35.792Z,2.93
2022-12-27T13:22:14.575Z,2.50
2022-12-27T13:25:18.505Z,1.70
2022-12-27T13:27:53.997Z,2.03
2022-12-27T13:30:24.186Z,2.63
2022-12-27T13:32:53.912Z,5.33
2022-12-27T13:35:39.028Z,3.43
2022-12-27T13:38:05.704Z,3.53
2022-12-27T13:41:14.032Z,4.80
2022-12-27T13:44:05.418Z,2.67
2022-12-27T13:46:42.067Z,2.90
2022-12-27T13:49:47.109Z,1.20
2022-12-27T13:52:55.920Z,2.53
2022-12-27T13:55:58.184Z,3.30
2022-12-27T13:58:36.563Z,2.70
2022-12-27T14:01:12.243Z,3.27
2022-12-27T14:04:11.155Z,3.73
2022-12-27T14:06:51.899Z,4.93
2022-12-27T14:09:49.548Z,3.03
2022-12-27T14:12:53.668Z,7.47
2022-12-27T14:15:25.916Z,1.47
2022-12-27T14:18:03.959Z,6.07
2022-12-27T14:21:10.036Z,0.90
2022-12-27T14:24:01.674Z,2.87
2022-12-27T14:27:02.019Z,2.30
2022-12-27T14:29:28.677Z,2.83
2022-12-27T14:32:17.069Z,2.00
2022-12-27T14:35:04.570Z,3.17
2022-12-27T14:37:34.262Z,1.97
2022-12-27T14:40:19.814Z,3.60
2022-12-27T14:43:33.934Z,2.30
2022-12-27T14:46:18.699Z,2.83
2022-12-27T14:48:57.826Z,2.20
2022-12-27T14:52:01.517Z,7.17
2022-12-27T14:54:48.318Z,7.17
2022-12-27T14:57:34.077Z,4.77
2022-12-27T15:00:00.951Z,2.03
2022-12-27T15:02:27.647Z,4.07
2022-12-27T15:05:22.479Z,2.23
2022-12-27T15:08:10.876Z,3.57
2022-12-27T15:10:49.597Z,5.43
2022-12-27T15:13:27.691Z,5.77
2022-12-27T15:16:36.200Z,2.40
2022-12-27T15:19:36.459Z,2.37
2022-12-27T15:22:09.992Z,5.33
2022-12-27T15:24:49.236Z,3.23
2022-12-27T15:27:39.826Z,2.63
2022-12-27T15:30:54.447Z,2.07
2022-12-27T15:33:42.139Z,4.43
2022-12-27T15:36:17.822Z,4.10
2022-12-27T15:38:53.949Z,3.40
2022-12-27T15:41:36.186Z,2.90
2022-12-27T15:44:46.349Z,3.90
2022-12-27T15:47:21.823Z,6.20
2022-12-27T15:50:06.626Z,3.33
2022-12-27T15:52:46.920Z,3.17
2022-12-27T15:55:35.231Z,3.63
2022-12-27T15:58:15.636Z,5.03
2022-12-27T16:00:44.483Z,3.27
2022-12-27T16:03:36.266Z,2.83
2022-12-27T16:06:05.728Z,2.80
2022-12-27T16:08:38.784Z,2.47
2022-12-27T16:11:12.143Z,2.13
2022-12-27T16:13:43.926Z,3.90
2022-12-27T16:16:32.577Z,3.37
2022-12-27T16:19:34.105Z,2.93
2022-12-27T16:22:14.107Z,1.60
2022-12-27T16:24:42.010Z,3.90
2022-12-27T16:27:31.070Z,4.13
2022-12-27T16:29:58.776Z,4.30
2022-12-27T16:32:28.150Z,3.47
2022-12-27T16:35:09.716Z,4.27
2022-12-27T16:37:45.616Z,5.33
2022-12-27T16:40:18.467Z,5.57
2022-12-27T16:42:48.051Z,4.23
2022-12-27T16:45:43.988Z,1.93
2022-12-27T16:48:16.659Z,3.77
2022-12-27T16:51:02.246Z,3.73
2022-12-27T16:53:51.596Z,4.47
2022-12-27T16:56:22.703Z,3.07
2022-12-27T16:58:50.163Z,4.67
2022-12-27T17:01:26.122Z,4.60
2022-12-27T17:03:57.451Z,4.03
2022-12-27T17:06:33.548Z,3.67
2022-12-27T17:09:10.039Z,3.10
2022-12-27T17:11:51.524Z,4.10
2022-12-27T17:14:25.845Z,4.03
2022-12-27T17:16:55.675Z,6.97
2022-12-27T17:19:37.356Z,8.00
2022-12-27T17:22:07.209Z,5.27
2022-12-27T17:24:34.449Z,3.63
2022-12-27T17:27:12.999Z,5.77
2022-12-27T17:30:04.045Z,4.07
2022-12-27T17:32:55.244Z,4.17
2022-12-27T17:35:49.560Z,6.57
2022-12-27T17:38:47.752Z,4.77
2022-12-27T17:42:01.968Z,5.83
2022-12-27T17:44:40.913Z,4.83
2022-12-27T17:47:37.086Z,8.57
2022-12-27T17:50:09.090Z,5.80
2022-12-27T17:52:54.263Z,7.03
2022-12-27T17:55:43.112Z,5.07
2022-12-27T17:58:13.409Z,6.00
2022-12-27T18:00:52.338Z,6.30
2022-12-27T18:03:19.379Z,4.60
2022-12-27T18:05:49.037Z,8.83
2022-12-27T18:08:37.055Z,7.47
2022-12-27T18:11:05.987Z,5.70
2022-12-27T18:13:36.222Z,7.17
2022-12-27T18:16:19.204Z,8.87
2022-12-27T18:18:48.771Z,7.30
2022-12-27T18:21:24.942Z,4.87
2022-12-27T18:23:53.666Z,5.97
2022-12-27T18:26:33.874Z,7.23
2022-12-27T18:29:00.604Z,8.90
2022-12-27T18:31:27.296Z,10.73
2022-12-27T18:33:57.115Z,7.87
2022-12-27T18:36:30.616Z,8.70
2022-12-27T18:39:01.051Z,6.40
2022-12-27T18:41:37.250Z,7.47
2022-12-27T18:44:11.261Z,8.90
2022-12-27T18:47:22.625Z,8.97
2022-12-27T18:50:05.895Z,8.17
2022-12-27T18:52:43.292Z,9.00
2022-12-27T18:55:29.184Z,10.60
2022-12-27T18:58:21.255Z,8.23
2022-12-27T19:00:56.933Z,7.23
2022-12-27T19:03:33.851Z,7.43
2022-12-27T19:06:11.719Z,10.60
2022-12-27T19:08:58.722Z,12.93
2022-12-27T19:11:33.050Z,9.83
2022-12-27T19:14:04.844Z,11.23
2022-12-27T19:16:34.831Z,14.93
2022-12-27T19:19:39.449Z,14.77
2022-12-27T19:22:29.981Z,12.93
2022-12-27T19:25:20.567Z,13.80
2022-12-27T19:28:10.100Z,11.40
2022-12-27T19:30:36.987Z,9.67
2022-12-27T19:33:13.215Z,16.07
2022-12-27T19:35:42.051Z,12.50
2022-12-27T19:38:21.804Z,14.23
2022-12-27T19:40:51.027Z,13.07
2022-12-27T19:43:18.751Z,11.83
2022-12-27T19:45:45.591Z,9.63
2022-12-27T19:48:12.509Z,10.83
2022-12-27T19:50:45.029Z,10.67
2022-12-27T19:53:17.573Z,12.90
2022-12-27T19:55:44.371Z,11.27
2022-12-27T19:58:21.668Z,10.50
2022-12-27T20:00:49.103Z,13.20
2022-12-27T20:03:16.147Z,18.30
2022-12-27T20:06:12.669Z,13.83
2022-12-27T20:08:38.962Z,10.80
2022-12-27T20:11:07.645Z,13.77
2022-12-27T20:13:34.309Z,13.47
2022-12-27T20:16:01.550Z,16.93
2022-12-27T20:18:28.379Z,13.07
2022-12-27T20:20:55.117Z,16.53
2022-12-27T20:23:21.926Z,13.73
2022-12-27T20:25:50.165Z,16.77
2022-12-27T20:28:18.249Z,17.23
2022-12-27T20:30:46.723Z,17.17
2022-12-27T20:33:14.094Z,14.50
2022-12-27T20:35:41.063Z,16.43
2022-12-27T20:38:09.140Z,16.90
2022-12-27T20:40:35.859Z,13.70
2022-12-27T20:43:02.725Z,13.77
2022-12-27T20:45:29.703Z,13.63
2022-12-27T20:47:56.699Z,14.57
2022-12-27T20:50:25.258Z,15.37
2022-12-27T20:52:52.029Z,13.50
2022-12-27T20:55:19.054Z,13.90
2022-12-27T20:57:48.748Z,13.23
2022-12-27T21:00:16.491Z,13.13
2022-12-27T21:02:47.965Z,13.50
2022-12-27T21:05:16.450Z,15.57
2022-12-27T21:07:43.208Z,16.20
2022-12-27T21:10:10.838Z,13.90
2022-12-27T21:12:38.533Z,12.73
2022-12-27T21:15:08.596Z,14.77
2022-12-27T21:17:35.537Z,16.20
2022-12-27T21:20:02.320Z,12.10
2022-12-27T21:22:29.022Z,11.57
2022-12-27T21:24:55.781Z,15.00
2022-12-27T21:27:25.284Z,12.20
2022-12-27T21:29:52.346Z,11.13
2022-12-27T21:32:21.376Z,10.50
2022-12-27T21:34:48.444Z,13.97
2022-12-27T21:37:17.993Z,14.27
2022-12-27T21:39:49.148Z,12.70
2022-12-27T21:42:18.232Z,13.13
2022-12-27T21:44:48.078Z,10.80
2022-12-27T21:47:14.890Z,14.83
2022-12-27T21:49:41.787Z,14.90
2022-12-27T21:52:08.663Z,10.33
2022-12-27T21:54:35.462Z,12.70
2022-12-27T21:57:03.078Z,10.97
2022-12-27T21:59:31.910Z,13.13
2022-12-27T22:01:58.741Z,12.67
2022-12-27T22:04:25.515Z,15.10
2022-12-27T22:06:52.211Z,14.27
2022-12-27T22:09:19.651Z,15.03
2022-12-27T22:11:46.904Z,12.20
2022-12-27T22:14:14.524Z,17.27
2022-12-27T22:16:41.300Z,19.03
2022-12-27T22:19:10.900Z,17.47
2022-12-27T22:21:44.521Z,19.10
2022-12-27T22:24:17.201Z,20.53
2022-12-27T22:26:44.295Z,15.43
2022-12-27T22:29:12.022Z,14.93
2022-12-27T22:31:40.137Z,16.57
2022-12-27T22:34:06.985Z,13.00
2022-12-27T22:36:34.178Z,16.90
2022-12-27T22:39:01.655Z,14.23
2022-12-27T22:41:34.485Z,15.57
2022-12-27T22:44:07.424Z,14.13
2022-12-27T22:49:21.775Z,19.70
2022-12-27T22:51:48.425Z,19.13
2022-12-27T22:54:15.290Z,16.97
2022-12-27T22:56:42.846Z,20.23
2022-12-27T22:59:12.268Z,16.53
2022-12-27T23:01:40.909Z,20.03
2022-12-27T23:04:10.643Z,16.07
2022-12-27T23:06:37.455Z,14.03
2022-12-27T23:09:04.818Z,14.70
2022-12-27T23:11:34.981Z,17.00
2022-12-27T23:14:05.316Z,14.53
2022-12-27T23:16:36.996Z,17.50
2022-12-27T23:19:05.466Z,16.67
2022-12-27T23:21:32.172Z,20.17
2022-12-27T23:23:58.928Z,18.50
2022-12-27T23:26:26.008Z,17.60
2022-12-27T23:28:53.357Z,16.87
2022-12-27T23:31:22.045Z,14.17
2022-12-27T23:33:49.303Z,14.57
2022-12-27T23:36:16.009Z,11.93
2022-12-27T23:38:43.305Z,15.93
2022-12-27T23:41:15.292Z,14.63
2022-12-27T23:43:52.156Z,14.10
2022-12-27T23:46:24.910Z,13.73
2022-12-27T23:48:52.196Z,14.30
2022-12-27T23:51:19.806Z,16.83
2022-12-27T23:53:46.735Z,13.97
2022-12-27T23:56:14.719Z,13.33
2022-12-27T23:58:41.688Z,13.10
